OOCL Long Beach — VRYO4 — position and weather

sailwx.info

Track history (hours):
 
Tides and Currents Weather Stations Pressure Air Temp Water Temp Dewpoint Dewpoint Depression Visibility Wind Speed Wind Dir Waves Ship Positions

OOCL Long Beach

Last reported at 2016-May-01 18:29 UTC. Time now 2016-May-02 01:23 UTC.
Position N 22°07' E 114°24'.

Length 323 m; beam 42.8 m; draft 14.5 m.

Type: Cargo ship. MMSI: 477316000.

Date/timePositionNaut miles runAvg speedWind from/ knotsBaromVisibWave heightAir tempDewpointWater temp
2016-May-01 18:29N 22°07' E 114°24'22 7.6
2016-May-01 15:33N 22°20' E 114°05'0 0.0
2016-May-01 01:33N 22°21' E 114°05'2 1.0
2016-Apr-30 23:18N 22°21' E 114°07'0 0.0
2016-Apr-30 22:30N 22°21' E 114°07'0 0.0
2016-Apr-30 21:30N 22°21' E 114°07'0 0.0
2016-Apr-30 20:27N 22°21' E 114°07'0 0.0
2016-Apr-30 19:33N 22°21' E 114°07'0 0.0
2016-Apr-30 18:12N 22°21' E 114°07'0 0.0
2016-Apr-30 17:30N 22°21' E 114°07'0 0.0
2016-Apr-30 16:30N 22°21' E 114°07'0 0.0
2016-Apr-30 13:18N 22°21' E 114°07'0 0.0
2016-Apr-30 10:21N 22°21' E 114°07'4 4.9
2016-Apr-30 09:34N 22°17' E 114°06'11 9.6
2016-Apr-30 08:26N 22°09' E 114°14'7 7.7
2016-Apr-30 07:34N 22°08' E 114°21'9 8.0
2016-Apr-30 06:28N 22°09' E 114°30'124 8.1
2016-Apr-29 15:11N 22°43' E 116°40'7 9.1
2016-Apr-29 14:23N 22°47' E 116°47'20 9.6
2016-Apr-29 12:17N 22°58' E 117°05'910.2
2016-Apr-29 11:26N 23°03' E 117°13'910.2
2016-Apr-29 10:32N 23°09' E 117°20'1010.6
2016-Apr-29 09:33N 23°16' E 117°28'1110.8
2016-Apr-29 08:34N 23°24' E 117°36'1110.4
2016-Apr-29 07:31N 23°32' E 117°44'1010.1
2016-Apr-29 06:32N 23°39' E 117°52'1010.3
2016-Apr-29 05:34N 23°46' E 117°60'1010.0
2016-Apr-29 04:31N 23°54' E 118°07'1010.0
2016-Apr-29 03:32N 24°01' E 118°15'9 9.7
2016-Apr-29 02:33N 24°10' E 118°18'1414.0
2016-Apr-29 01:33N 24°21' E 118°09'10 9.4
2016-Apr-29 00:31N 24°27' E 118°00'0 0.0
2016-Apr-28 23:19N 24°27' E 118°00'0 0.0
2016-Apr-28 22:19N 24°27' E 118°00'0 0.0
2016-Apr-28 21:31N 24°27' E 118°00'0 0.0
2016-Apr-28 20:19N 24°27' E 118°00'0 0.0
2016-Apr-28 19:31N 24°27' E 118°00'0 0.0
2016-Apr-28 17:31N 24°27' E 118°00'0 0.0
2016-Apr-28 16:31N 24°27' E 118°00'0 0.0
2016-Apr-28 15:31N 24°27' E 118°00'0 0.0
2016-Apr-28 14:31N 24°27' E 118°00'0 0.0
2016-Apr-28 13:31N 24°27' E 118°00'0 0.0
2016-Apr-28 12:25N 24°27' E 118°00'0 0.0
2016-Apr-28 11:32N 24°27' E 118°00'7 7.3
2016-Apr-28 10:34N 24°23' E 118°07'9 9.1
2016-Apr-28 09:33N 24°17' E 118°14'9 8.6
2016-Apr-28 08:33N 24°09' E 118°19'1 0.7
2016-Apr-28 07:33N 24°10' E 118°19'2 2.1
2016-Apr-28 06:34N 24°09' E 118°22'9 9.1
2016-Apr-28 05:33N 24°04' E 118°30'9 8.8
2016-Apr-28 04:32N 23°57' E 118°36'10 8.6
2016-Apr-28 03:23N 23°50' E 118°44'8 8.7
2016-Apr-28 02:30N 23°45' E 118°50'1010.1
2016-Apr-28 01:33N 23°38' E 118°57'73 9.9
2016-Apr-27 18:08N 22°48' E 119°56'710.9
2016-Apr-27 17:32N 22°43' E 120°01'1110.9
2016-Apr-27 16:33N 22°35' E 120°08'10 9.0
2016-Apr-27 15:25N 22°33' E 120°19'1 0.1
2016-Apr-26 16:17N 22°34' E 120°19'1 2.0
2016-Apr-26 15:33N 22°33' E 120°18'4 3.6
2016-Apr-26 14:33N 22°32' E 120°14'3 2.8
2016-Apr-26 13:32N 22°31' E 120°11'1 0.7
2016-Apr-26 12:33N 22°31' E 120°11'1 0.8
2016-Apr-26 11:33N 22°31' E 120°10'0 0.4
2016-Apr-26 10:33N 22°32' E 120°10'6 6.1
2016-Apr-26 09:33N 22°38' E 120°09'8 8.1
2016-Apr-26 08:33N 22°44' E 120°04'8 7.9
2016-Apr-26 07:33N 22°51' E 119°60'  
Track history (hours):
 
Tides and Currents Weather Stations Pressure Air Temp Water Temp Dewpoint Dewpoint Depression Visibility Wind Speed Wind Dir Waves Ship Positions

OOCL Long Beach

Last reported at 2016-May-01 18:29 UTC. Time now 2016-May-02 01:23 UTC.
Position N 22°07' E 114°24'.

Length 323 m; beam 42.8 m; draft 14.5 m.

Type: Cargo ship. MMSI: 477316000.

Date/timePositionNaut miles runAvg speedWind from/ knotsBaromVisibWave heightAir tempDewpointWater temp
2016-May-01 18:29N 22°07' E 114°24'22 7.6
2016-May-01 15:33N 22°20' E 114°05'0 0.0
2016-May-01 01:33N 22°21' E 114°05'2 1.0
2016-Apr-30 23:18N 22°21' E 114°07'0 0.0
2016-Apr-30 22:30N 22°21' E 114°07'0 0.0
2016-Apr-30 21:30N 22°21' E 114°07'0 0.0
2016-Apr-30 20:27N 22°21' E 114°07'0 0.0
2016-Apr-30 19:33N 22°21' E 114°07'0 0.0
2016-Apr-30 18:12N 22°21' E 114°07'0 0.0
2016-Apr-30 17:30N 22°21' E 114°07'0 0.0
2016-Apr-30 16:30N 22°21' E 114°07'0 0.0
2016-Apr-30 13:18N 22°21' E 114°07'0 0.0
2016-Apr-30 10:21N 22°21' E 114°07'4 4.9
2016-Apr-30 09:34N 22°17' E 114°06'11 9.6
2016-Apr-30 08:26N 22°09' E 114°14'7 7.7
2016-Apr-30 07:34N 22°08' E 114°21'9 8.0
2016-Apr-30 06:28N 22°09' E 114°30'124 8.1
2016-Apr-29 15:11N 22°43' E 116°40'7 9.1
2016-Apr-29 14:23N 22°47' E 116°47'20 9.6
2016-Apr-29 12:17N 22°58' E 117°05'910.2
2016-Apr-29 11:26N 23°03' E 117°13'910.2
2016-Apr-29 10:32N 23°09' E 117°20'1010.6
2016-Apr-29 09:33N 23°16' E 117°28'1110.8
2016-Apr-29 08:34N 23°24' E 117°36'1110.4
2016-Apr-29 07:31N 23°32' E 117°44'1010.1
2016-Apr-29 06:32N 23°39' E 117°52'1010.3
2016-Apr-29 05:34N 23°46' E 117°60'1010.0
2016-Apr-29 04:31N 23°54' E 118°07'1010.0
2016-Apr-29 03:32N 24°01' E 118°15'9 9.7
2016-Apr-29 02:33N 24°10' E 118°18'1414.0
2016-Apr-29 01:33N 24°21' E 118°09'10 9.4
2016-Apr-29 00:31N 24°27' E 118°00'0 0.0
2016-Apr-28 23:19N 24°27' E 118°00'0 0.0
2016-Apr-28 22:19N 24°27' E 118°00'0 0.0
2016-Apr-28 21:31N 24°27' E 118°00'0 0.0
2016-Apr-28 20:19N 24°27' E 118°00'0 0.0
2016-Apr-28 19:31N 24°27' E 118°00'0 0.0
2016-Apr-28 17:31N 24°27' E 118°00'0 0.0
2016-Apr-28 16:31N 24°27' E 118°00'0 0.0
2016-Apr-28 15:31N 24°27' E 118°00'0 0.0
2016-Apr-28 14:31N 24°27' E 118°00'0 0.0
2016-Apr-28 13:31N 24°27' E 118°00'0 0.0
2016-Apr-28 12:25N 24°27' E 118°00'0 0.0
2016-Apr-28 11:32N 24°27' E 118°00'7 7.3
2016-Apr-28 10:34N 24°23' E 118°07'9 9.1
2016-Apr-28 09:33N 24°17' E 118°14'9 8.6
2016-Apr-28 08:33N 24°09' E 118°19'1 0.7
2016-Apr-28 07:33N 24°10' E 118°19'2 2.1
2016-Apr-28 06:34N 24°09' E 118°22'9 9.1
2016-Apr-28 05:33N 24°04' E 118°30'9 8.8
2016-Apr-28 04:32N 23°57' E 118°36'10 8.6
2016-Apr-28 03:23N 23°50' E 118°44'8 8.7
2016-Apr-28 02:30N 23°45' E 118°50'1010.1
2016-Apr-28 01:33N 23°38' E 118°57'73 9.9
2016-Apr-27 18:08N 22°48' E 119°56'710.9
2016-Apr-27 17:32N 22°43' E 120°01'1110.9
2016-Apr-27 16:33N 22°35' E 120°08'10 9.0
2016-Apr-27 15:25N 22°33' E 120°19'1 0.1
2016-Apr-26 16:17N 22°34' E 120°19'1 2.0
2016-Apr-26 15:33N 22°33' E 120°18'4 3.6
2016-Apr-26 14:33N 22°32' E 120°14'3 2.8
2016-Apr-26 13:32N 22°31' E 120°11'1 0.7
2016-Apr-26 12:33N 22°31' E 120°11'1 0.8
2016-Apr-26 11:33N 22°31' E 120°10'0 0.4
2016-Apr-26 10:33N 22°32' E 120°10'6 6.1
2016-Apr-26 09:33N 22°38' E 120°09'8 8.1
2016-Apr-26 08:33N 22°44' E 120°04'8 7.9
2016-Apr-26 07:33N 22°51' E 119°60'  

Dump ship's entire track history